createdAt,value
2022-09-27T00:00:38.877Z,3.50
2022-09-27T00:02:41.819Z,3.13
2022-09-27T00:04:44.410Z,3.42
2022-09-27T00:06:46.950Z,2.88
2022-09-27T00:08:49.550Z,3.03
2022-09-27T00:10:59.757Z,3.28
2022-09-27T00:13:02.369Z,3.75
2022-09-27T00:15:06.843Z,3.05
2022-09-27T00:17:10.003Z,2.53
2022-09-27T00:19:20.382Z,2.58
2022-09-27T00:21:22.930Z,1.92
2022-09-27T00:23:25.539Z,2.65
2022-09-27T00:25:28.139Z,2.30
2022-09-27T00:27:30.737Z,2.30
2022-09-27T00:29:33.418Z,2.90
2022-09-27T00:31:36.576Z,2.33
2022-09-27T00:33:39.239Z,2.10
2022-09-27T00:35:41.752Z,2.35
2022-09-27T00:37:44.291Z,2.42
2022-09-27T00:39:46.904Z,3.95
2022-09-27T00:41:49.560Z,2.95
2022-09-27T00:43:54.977Z,3.22
2022-09-27T00:46:02.529Z,3.03
2022-09-27T00:48:06.431Z,2.72
2022-09-27T00:50:23.941Z,2.70
2022-09-27T00:52:42.273Z,5.35
2022-09-27T00:54:51.046Z,4.30
2022-09-27T00:56:54.167Z,4.50
2022-09-27T00:59:04.597Z,5.85
2022-09-27T01:01:10.714Z,2.22
2022-09-27T01:03:19.843Z,4.05
2022-09-27T01:05:26.242Z,3.50
2022-09-27T01:07:28.970Z,3.55
2022-09-27T01:09:32.707Z,3.00
2022-09-27T01:11:56.436Z,3.85
2022-09-27T01:14:18.651Z,4.97
2022-09-27T01:16:34.736Z,4.10
2022-09-27T01:19:10.110Z,2.70
2022-09-27T01:21:30.749Z,4.03
2022-09-27T01:24:04.110Z,2.58
2022-09-27T01:26:14.701Z,8.10
2022-09-27T01:28:21.841Z,3.40
2022-09-27T01:30:29.355Z,2.83
2022-09-27T01:32:40.247Z,5.53
2022-09-27T01:34:53.397Z,3.47
2022-09-27T01:37:25.277Z,4.47
2022-09-27T01:39:51.876Z,2.75
2022-09-27T01:42:04.721Z,2.88
2022-09-27T01:44:19.158Z,3.08
2022-09-27T01:46:29.212Z,5.70
2022-09-27T01:48:43.182Z,4.57
2022-09-27T01:50:55.037Z,7.45
2022-09-27T01:55:08.302Z,4.18
2022-09-27T01:57:14.783Z,4.20
2022-09-27T01:59:29.877Z,3.17
2022-09-27T02:01:36.259Z,4.20
2022-09-27T02:03:44.972Z,6.43
2022-09-27T02:05:54.210Z,5.00
2022-09-27T02:08:02.855Z,3.22
2022-09-27T02:10:14.844Z,7.10
2022-09-27T02:12:25.002Z,7.15
2022-09-27T02:15:00.279Z,6.60
2022-09-27T02:17:16.681Z,2.10
2022-09-27T02:19:25.363Z,3.08
2022-09-27T02:21:40.292Z,2.05
2022-09-27T02:23:52.957Z,2.17
2022-09-27T02:26:02.914Z,2.00
2022-09-27T02:28:47.611Z,3.33
2022-09-27T02:30:50.410Z,3.00
2022-09-27T02:32:53.368Z,3.10
2022-09-27T02:34:59.758Z,4.05
2022-09-27T02:37:02.495Z,2.95
2022-09-27T02:39:05.618Z,1.95
2022-09-27T02:41:19.911Z,1.73
2022-09-27T02:43:28.281Z,2.22
2022-09-27T02:45:54.101Z,4.80
2022-09-27T02:48:25.707Z,4.18
2022-09-27T02:50:31.257Z,2.47
2022-09-27T02:52:42.963Z,3.13
2022-09-27T02:54:59.916Z,2.55
2022-09-27T02:57:21.211Z,3.15
2022-09-27T02:59:26.367Z,2.95
2022-09-27T03:01:52.444Z,2.67
2022-09-27T03:04:04.514Z,5.55
2022-09-27T03:06:13.695Z,2.33
2022-09-27T03:08:16.988Z,3.35
2022-09-27T03:10:24.103Z,5.90
2022-09-27T03:12:27.074Z,3.90
2022-09-27T03:14:29.715Z,4.03
2022-09-27T03:16:32.332Z,2.65
2022-09-27T03:18:34.952Z,4.28
2022-09-27T03:20:37.638Z,3.65
2022-09-27T03:22:40.976Z,4.15
2022-09-27T03:24:43.843Z,6.53
2022-09-27T03:26:46.455Z,5.53
2022-09-27T03:28:49.263Z,3.70
2022-09-27T03:30:52.571Z,3.55
2022-09-27T03:32:55.227Z,4.25
2022-09-27T03:34:57.906Z,3.05
2022-09-27T03:37:00.538Z,4.60
2022-09-27T03:39:03.369Z,3.17
2022-09-27T03:41:06.553Z,4.45
2022-09-27T03:43:09.196Z,6.75
2022-09-27T03:45:11.877Z,6.95
2022-09-27T03:47:14.574Z,4.88
2022-09-27T03:49:17.732Z,3.17
2022-09-27T03:51:20.403Z,5.30
2022-09-27T03:53:23.206Z,3.63
2022-09-27T03:55:26.286Z,8.27
2022-09-27T03:57:30.880Z,3.97
2022-09-27T03:59:33.521Z,3.38
2022-09-27T04:01:37.874Z,2.63
2022-09-27T04:03:40.584Z,4.13
2022-09-27T04:05:43.262Z,9.02
2022-09-27T04:07:49.952Z,9.25
2022-09-27T04:09:52.658Z,9.02
2022-09-27T04:11:55.318Z,6.85
2022-09-27T04:13:58.024Z,4.75
2022-09-27T04:16:03.102Z,5.45
2022-09-27T04:18:07.020Z,6.25
2022-09-27T04:20:11.802Z,4.28
2022-09-27T04:22:15.625Z,5.05
2022-09-27T04:24:18.191Z,3.10
2022-09-27T04:26:21.338Z,2.63
2022-09-27T04:28:25.028Z,2.75
2022-09-27T04:30:29.340Z,4.70
2022-09-27T04:32:32.215Z,3.53
2022-09-27T04:34:53.419Z,4.72
2022-09-27T04:36:56.128Z,5.15
2022-09-27T04:39:01.918Z,3.53
2022-09-27T04:41:04.809Z,3.75
2022-09-27T04:43:07.409Z,3.10
2022-09-27T04:45:10.165Z,3.92
2022-09-27T04:47:12.786Z,4.05
2022-09-27T04:49:17.644Z,6.75
2022-09-27T04:51:21.267Z,3.50
2022-09-27T04:53:24.171Z,7.85
2022-09-27T04:55:27.829Z,2.95
2022-09-27T04:57:30.449Z,3.00
2022-09-27T04:59:33.010Z,3.05
2022-09-27T05:01:35.831Z,5.22
2022-09-27T05:03:39.166Z,2.58
2022-09-27T05:05:42.045Z,3.28
2022-09-27T05:07:44.748Z,4.10
2022-09-27T05:09:47.513Z,3.45
2022-09-27T05:11:50.140Z,6.30
2022-09-27T05:13:52.913Z,3.70
2022-09-27T05:15:55.941Z,5.57
2022-09-27T05:17:59.069Z,3.47
2022-09-27T05:20:02.074Z,2.45
2022-09-27T05:22:07.595Z,2.05
2022-09-27T05:24:10.221Z,2.50
2022-09-27T05:26:12.973Z,3.38
2022-09-27T05:28:15.580Z,2.53
2022-09-27T05:30:18.855Z,1.85
2022-09-27T05:32:21.617Z,1.75
2022-09-27T05:34:24.969Z,3.50
2022-09-27T05:36:27.680Z,1.75
2022-09-27T05:38:30.351Z,1.90
2022-09-27T05:40:41.636Z,2.03
2022-09-27T05:42:44.842Z,1.52
2022-09-27T05:44:47.839Z,4.15
2022-09-27T05:46:50.419Z,1.77
2022-09-27T05:48:53.219Z,1.55
2022-09-27T05:50:55.826Z,2.38
2022-09-27T05:52:58.647Z,3.40
2022-09-27T05:55:01.361Z,2.25
2022-09-27T05:57:08.892Z,1.75
2022-09-27T05:59:11.471Z,4.43
2022-09-27T06:01:14.270Z,3.05
2022-09-27T06:03:18.182Z,3.85
2022-09-27T06:05:21.138Z,3.75
2022-09-27T06:07:23.971Z,2.80
2022-09-27T06:09:28.335Z,2.78
2022-09-27T06:11:30.975Z,2.90
2022-09-27T06:13:34.507Z,9.60
2022-09-27T06:15:39.515Z,3.53
2022-09-27T06:17:42.331Z,5.63
2022-09-27T06:19:44.949Z,7.70
2022-09-27T06:21:51.260Z,4.18
2022-09-27T06:23:55.710Z,3.38
2022-09-27T06:26:02.686Z,3.65
2022-09-27T06:28:05.499Z,3.97
2022-09-27T06:30:08.760Z,3.63
2022-09-27T06:32:11.397Z,4.38
2022-09-27T06:34:14.101Z,3.97
2022-09-27T06:38:26.842Z,3.00
2022-09-27T06:40:29.967Z,4.88
2022-09-27T06:42:33.715Z,4.00
2022-09-27T06:44:36.271Z,3.13
2022-09-27T06:46:40.117Z,3.00
2022-09-27T06:48:42.817Z,2.75
2022-09-27T06:50:48.107Z,4.63
2022-09-27T06:52:51.417Z,3.45
2022-09-27T06:54:54.099Z,3.22
2022-09-27T06:57:00.291Z,5.82
2022-09-27T06:59:23.613Z,5.05
2022-09-27T07:01:29.856Z,4.18
2022-09-27T07:03:38.871Z,4.32
2022-09-27T07:05:43.582Z,2.70
2022-09-27T07:07:48.071Z,2.55
2022-09-27T07:09:50.673Z,2.65
2022-09-27T07:11:55.458Z,5.50
2022-09-27T07:13:58.156Z,3.30
2022-09-27T07:16:01.725Z,2.83
2022-09-27T07:18:05.787Z,4.20
2022-09-27T07:20:08.888Z,2.75
2022-09-27T07:22:11.535Z,4.82
2022-09-27T07:24:14.134Z,3.65
2022-09-27T07:26:16.799Z,2.78
2022-09-27T07:28:22.118Z,3.60
2022-09-27T07:30:25.005Z,2.60
2022-09-27T07:32:27.720Z,3.42
2022-09-27T07:34:30.646Z,3.38
2022-09-27T07:36:33.663Z,2.85
2022-09-27T07:38:37.017Z,3.38
2022-09-27T07:40:40.678Z,5.18
2022-09-27T07:42:43.405Z,2.05
2022-09-27T07:44:46.042Z,2.60
2022-09-27T07:46:48.696Z,4.53
2022-09-27T07:48:52.555Z,5.18
2022-09-27T07:50:55.127Z,7.75
2022-09-27T07:52:57.940Z,5.38
2022-09-27T07:55:00.738Z,4.55
2022-09-27T07:57:03.528Z,4.28
2022-09-27T07:59:06.109Z,3.22
2022-09-27T08:01:08.905Z,4.40
2022-09-27T08:03:16.684Z,5.18
2022-09-27T08:05:19.355Z,4.75
2022-09-27T08:07:21.975Z,3.20
2022-09-27T08:09:26.511Z,3.88
2022-09-27T08:11:29.180Z,2.55
2022-09-27T08:13:31.813Z,2.80
2022-09-27T08:15:39.366Z,5.47
2022-09-27T08:17:42.323Z,10.68
2022-09-27T08:19:45.654Z,7.70
2022-09-27T08:21:48.694Z,5.93
2022-09-27T08:23:51.253Z,3.17
2022-09-27T08:25:54.996Z,2.95
2022-09-27T08:28:00.156Z,4.22
2022-09-27T08:30:03.787Z,9.70
2022-09-27T08:32:07.095Z,3.35
2022-09-27T08:34:09.801Z,5.28
2022-09-27T08:36:13.489Z,2.25
2022-09-27T08:38:16.294Z,5.30
2022-09-27T08:40:24.218Z,3.92
2022-09-27T08:42:46.753Z,5.15
2022-09-27T08:45:09.309Z,5.13
2022-09-27T08:47:29.932Z,9.70
2022-09-27T08:49:57.701Z,10.82
2022-09-27T08:52:01.342Z,4.70
2022-09-27T08:54:14.884Z,7.35
2022-09-27T08:56:21.531Z,3.33
2022-09-27T08:58:27.100Z,4.65
2022-09-27T09:00:30.497Z,4.65
2022-09-27T09:02:34.053Z,7.05
2022-09-27T09:04:40.268Z,5.22
2022-09-27T09:06:59.452Z,4.13
2022-09-27T09:09:27.897Z,3.85
2022-09-27T09:12:17.190Z,5.18
2022-09-27T09:14:42.718Z,3.15
2022-09-27T09:16:48.775Z,5.00
2022-09-27T09:19:09.605Z,9.15
2022-09-27T09:21:26.671Z,4.78
2022-09-27T09:23:34.895Z,3.80
2022-09-27T09:26:12.665Z,4.88
2022-09-27T09:28:24.945Z,7.95
2022-09-27T09:30:44.438Z,4.10
2022-09-27T09:33:36.031Z,2.45
2022-09-27T09:35:50.377Z,2.92
2022-09-27T09:38:00.805Z,6.07
2022-09-27T09:40:17.105Z,3.22
2022-09-27T09:42:36.100Z,3.97
2022-09-27T09:44:48.637Z,3.00
2022-09-27T09:46:56.059Z,2.85
2022-09-27T09:49:10.989Z,1.40
2022-09-27T09:51:24.654Z,3.35
2022-09-27T09:53:45.250Z,2.78
2022-09-27T09:56:02.316Z,2.25
2022-09-27T09:58:23.301Z,2.10
2022-09-27T10:00:26.171Z,2.10
2022-09-27T10:02:34.518Z,3.60
2022-09-27T10:04:37.316Z,3.03
2022-09-27T10:06:40.102Z,3.03
2022-09-27T10:08:43.371Z,5.18
2022-09-27T10:10:46.555Z,10.23
2022-09-27T10:12:50.196Z,4.32
2022-09-27T10:14:55.259Z,6.22
2022-09-27T10:17:01.506Z,6.15
2022-09-27T10:19:05.766Z,3.80
2022-09-27T10:21:14.843Z,4.03
2022-09-27T10:23:22.629Z,8.25
2022-09-27T10:25:25.564Z,3.22
2022-09-27T10:27:38.386Z,9.82
2022-09-27T10:29:41.268Z,2.25
2022-09-27T10:31:48.535Z,2.90
2022-09-27T10:34:05.301Z,2.15
2022-09-27T10:36:25.401Z,4.30
2022-09-27T10:38:34.254Z,2.78
2022-09-27T10:40:36.884Z,4.70
2022-09-27T10:42:39.743Z,3.70
2022-09-27T10:44:42.350Z,3.70
2022-09-27T10:46:50.686Z,3.00
2022-09-27T10:49:32.923Z,4.28
2022-09-27T10:53:45.459Z,2.15
2022-09-27T10:55:51.216Z,2.30
2022-09-27T10:57:55.706Z,5.40
2022-09-27T11:00:02.573Z,3.97
2022-09-27T11:02:28.060Z,2.25
2022-09-27T11:04:34.120Z,1.73
2022-09-27T11:06:38.528Z,1.92
2022-09-27T11:08:41.264Z,2.25
2022-09-27T11:10:43.901Z,2.08
2022-09-27T11:12:46.702Z,3.60
2022-09-27T11:15:03.214Z,2.58
2022-09-27T11:17:20.683Z,5.35
2022-09-27T11:19:35.232Z,2.25
2022-09-27T11:22:04.621Z,2.25
2022-09-27T11:24:13.004Z,1.55
2022-09-27T11:26:41.730Z,2.58
2022-09-27T11:29:31.382Z,0.90
2022-09-27T11:32:02.637Z,3.67
2022-09-27T11:34:30.569Z,1.33
2022-09-27T11:37:09.544Z,2.95
2022-09-27T11:39:42.947Z,5.88
2022-09-27T11:42:26.202Z,5.88
2022-09-27T11:45:45.365Z,13.32
2022-09-27T11:47:57.492Z,3.92
2022-09-27T11:50:21.740Z,3.47
2022-09-27T11:53:05.091Z,4.40
2022-09-27T11:55:23.086Z,5.40
2022-09-27T11:58:01.664Z,6.90
2022-09-27T12:00:19.818Z,4.75
2022-09-27T12:02:54.908Z,5.55
2022-09-27T12:05:31.717Z,5.38
2022-09-27T12:07:39.974Z,8.90
2022-09-27T12:09:51.022Z,11.05
2022-09-27T12:12:05.259Z,8.95
2022-09-27T12:14:45.630Z,14.18
2022-09-27T12:16:52.415Z,13.80
2022-09-27T12:18:56.540Z,12.90
2022-09-27T12:21:03.530Z,13.93
2022-09-27T12:23:18.298Z,12.50
2022-09-27T12:25:21.458Z,13.80
2022-09-27T12:28:05.639Z,13.15
2022-09-27T12:30:13.680Z,12.88
2022-09-27T12:32:38.960Z,13.82
2022-09-27T12:34:52.384Z,14.50
2022-09-27T12:37:11.896Z,12.20
2022-09-27T12:39:29.423Z,15.82
2022-09-27T12:41:37.602Z,15.38
2022-09-27T12:43:47.359Z,14.73
2022-09-27T12:46:04.006Z,16.85
2022-09-27T12:48:12.353Z,16.60
2022-09-27T12:50:25.441Z,18.23
2022-09-27T12:52:33.755Z,22.05
2022-09-27T12:54:54.587Z,14.82
2022-09-27T12:57:51.098Z,20.55
2022-09-27T13:00:02.462Z,17.63
2022-09-27T13:03:11.010Z,16.63
2022-09-27T13:05:08.554Z,15.82
2022-09-27T13:07:40.983Z,17.60
2022-09-27T13:09:49.286Z,16.30
2022-09-27T13:12:22.887Z,17.45
2022-09-27T13:14:29.557Z,17.30
2022-09-27T13:16:42.715Z,16.38
2022-09-27T13:19:03.105Z,14.40
2022-09-27T13:21:09.976Z,14.05
2022-09-27T13:23:21.763Z,15.18
2022-09-27T13:28:32.447Z,16.98
2022-09-27T13:30:35.756Z,14.23
2022-09-27T13:32:39.914Z,15.80
2022-09-27T13:34:47.340Z,15.73
2022-09-27T13:36:49.932Z,24.20
2022-09-27T13:39:14.526Z,18.63
2022-09-27T13:41:21.510Z,15.18
2022-09-27T13:43:43.863Z,16.33
2022-09-27T13:45:59.765Z,17.17
2022-09-27T13:48:17.137Z,23.48
2022-09-27T13:50:36.492Z,20.52
2022-09-27T13:52:45.368Z,30.80
2022-09-27T13:54:55.293Z,20.48
2022-09-27T13:56:58.176Z,20.02
2022-09-27T13:59:03.507Z,20.30
2022-09-27T14:01:17.091Z,20.25
2022-09-27T14:03:31.758Z,17.10
2022-09-27T14:05:47.881Z,22.63
2022-09-27T14:07:52.301Z,17.98
2022-09-27T14:10:01.776Z,18.15
2022-09-27T14:12:12.340Z,18.67
2022-09-27T14:14:19.837Z,17.08
2022-09-27T14:16:22.860Z,18.85
2022-09-27T14:18:25.822Z,17.00
2022-09-27T14:20:44.971Z,17.05
2022-09-27T14:22:54.811Z,16.75
2022-09-27T14:24:58.301Z,16.55
2022-09-27T14:27:04.236Z,18.55
2022-09-27T14:29:20.175Z,20.33
2022-09-27T14:31:25.739Z,17.48
2022-09-27T14:33:34.521Z,18.52
2022-09-27T14:36:04.519Z,17.27
2022-09-27T14:38:35.859Z,19.13
2022-09-27T14:40:42.623Z,18.75
2022-09-27T14:42:45.594Z,18.77
2022-09-27T14:44:50.368Z,15.38
2022-09-27T14:47:19.922Z,17.58
2022-09-27T14:49:24.749Z,17.02
2022-09-27T14:51:30.798Z,15.45
2022-09-27T14:53:37.837Z,13.60
2022-09-27T14:55:45.545Z,14.52
2022-09-27T14:58:03.476Z,14.70
2022-09-27T15:00:15.352Z,16.58
2022-09-27T15:04:34.498Z,14.32
2022-09-27T15:06:37.431Z,12.13
2022-09-27T15:08:40.804Z,14.23
2022-09-27T15:10:44.658Z,12.85
2022-09-27T15:12:52.147Z,12.15
2022-09-27T15:14:58.361Z,13.05
2022-09-27T15:17:06.145Z,12.10
2022-09-27T15:19:23.529Z,13.40
2022-09-27T15:21:32.399Z,8.88
2022-09-27T15:23:39.046Z,10.07
2022-09-27T15:26:17.763Z,14.23
2022-09-27T15:28:20.575Z,8.02
2022-09-27T15:30:30.325Z,13.35
2022-09-27T15:32:33.225Z,10.82
2022-09-27T15:34:37.301Z,10.75
2022-09-27T15:36:51.450Z,9.07
2022-09-27T15:39:08.873Z,9.43
2022-09-27T15:41:16.379Z,8.95
2022-09-27T15:43:30.696Z,11.27
2022-09-27T15:45:34.758Z,9.63
2022-09-27T15:47:37.212Z,9.77
2022-09-27T15:49:39.918Z,11.98
2022-09-27T15:51:53.081Z,9.98
2022-09-27T15:53:55.623Z,11.45
2022-09-27T15:55:58.658Z,12.60
2022-09-27T15:58:19.495Z,10.05
2022-09-27T16:00:22.161Z,9.68
2022-09-27T16:02:25.134Z,9.90
2022-09-27T16:04:31.298Z,9.25
2022-09-27T16:06:33.914Z,10.00
2022-09-27T16:08:36.558Z,9.68
2022-09-27T16:10:42.341Z,11.18
2022-09-27T16:12:45.451Z,8.88
2022-09-27T16:14:48.563Z,8.77
2022-09-27T16:17:00.787Z,13.45
2022-09-27T16:19:03.633Z,11.48
2022-09-27T16:21:06.593Z,9.77
2022-09-27T16:23:09.263Z,9.00
2022-09-27T16:25:12.325Z,7.20
2022-09-27T16:27:27.515Z,9.20
2022-09-27T16:29:30.202Z,7.53
2022-09-27T16:31:32.894Z,8.60
2022-09-27T16:33:37.087Z,7.72
2022-09-27T16:35:42.920Z,8.27
2022-09-27T16:37:46.048Z,7.57
2022-09-27T16:39:48.940Z,7.70
2022-09-27T16:41:52.620Z,7.55
2022-09-27T16:43:55.289Z,7.82
2022-09-27T16:46:04.861Z,7.13
2022-09-27T16:48:07.685Z,5.63
2022-09-27T16:50:31.301Z,6.55
2022-09-27T16:52:34.993Z,6.38
2022-09-27T16:54:37.631Z,6.35
2022-09-27T16:56:40.283Z,6.45
2022-09-27T16:58:42.833Z,6.30
2022-09-27T17:00:45.556Z,7.40
2022-09-27T17:02:48.425Z,7.15
2022-09-27T17:04:52.207Z,6.47
2022-09-27T17:06:56.022Z,7.22
2022-09-27T17:09:03.522Z,6.07
2022-09-27T17:11:06.633Z,6.97
2022-09-27T17:13:09.195Z,6.10
2022-09-27T17:15:11.859Z,6.70
2022-09-27T17:17:14.399Z,7.40
2022-09-27T17:19:18.660Z,9.27
2022-09-27T17:21:21.373Z,7.15
2022-09-27T17:23:23.957Z,6.78
2022-09-27T17:25:26.606Z,6.63
2022-09-27T17:27:29.302Z,7.20
2022-09-27T17:29:31.933Z,9.10
2022-09-27T17:31:37.396Z,10.13
2022-09-27T17:33:45.373Z,7.95
2022-09-27T17:35:48.233Z,6.85
2022-09-27T17:37:50.922Z,6.28
2022-09-27T17:39:53.649Z,9.82
2022-09-27T17:41:56.341Z,7.55
2022-09-27T17:44:00.824Z,6.25
2022-09-27T17:46:08.770Z,7.65
2022-09-27T17:48:29.957Z,7.03
2022-09-27T17:50:32.613Z,7.60
2022-09-27T17:52:35.230Z,8.05
2022-09-27T17:54:38.579Z,6.13
2022-09-27T17:56:43.227Z,5.90
2022-09-27T17:58:47.847Z,7.70
2022-09-27T18:00:50.445Z,6.18
2022-09-27T18:02:53.135Z,7.13
2022-09-27T18:04:55.787Z,9.18
2022-09-27T18:06:58.351Z,6.70
2022-09-27T18:09:02.316Z,8.13
2022-09-27T18:11:16.310Z,6.88
2022-09-27T18:13:18.869Z,6.47
2022-09-27T18:15:22.002Z,11.68
2022-09-27T18:17:25.048Z,9.05
2022-09-27T18:19:27.744Z,7.15
2022-09-27T18:21:31.753Z,7.45
2022-09-27T18:23:34.459Z,29.48
2022-09-27T18:25:40.374Z,6.28
2022-09-27T18:27:44.504Z,5.28
2022-09-27T18:29:47.306Z,6.20
2022-09-27T18:31:50.089Z,9.27
2022-09-27T18:33:52.957Z,10.13
2022-09-27T18:35:55.687Z,7.32
2022-09-27T18:37:58.333Z,8.82
2022-09-27T18:40:01.197Z,6.93
2022-09-27T18:42:04.214Z,6.63
2022-09-27T18:44:07.215Z,8.65
2022-09-27T18:46:34.133Z,6.43
2022-09-27T18:48:38.145Z,5.90
2022-09-27T18:50:40.833Z,5.55
2022-09-27T18:52:44.184Z,5.93
2022-09-27T18:54:46.758Z,9.52
2022-09-27T18:56:52.435Z,6.50
2022-09-27T18:58:55.842Z,7.80
2022-09-27T19:01:03.165Z,5.55
2022-09-27T19:03:05.907Z,6.20
2022-09-27T19:05:09.445Z,6.00
2022-09-27T19:07:12.061Z,5.53
2022-09-27T19:09:14.621Z,6.43
2022-09-27T19:11:18.481Z,8.73
2022-09-27T19:13:25.156Z,5.68
2022-09-27T19:15:30.903Z,5.70
2022-09-27T19:17:33.489Z,6.85
2022-09-27T19:19:36.031Z,6.10
2022-09-27T19:21:38.578Z,5.07
2022-09-27T19:23:42.738Z,4.72
2022-09-27T19:25:45.522Z,8.77
2022-09-27T19:27:48.346Z,5.07
2022-09-27T19:29:51.017Z,7.82
2022-09-27T19:31:53.609Z,5.28
2022-09-27T19:33:59.876Z,6.10
2022-09-27T19:36:05.754Z,4.90
2022-09-27T19:38:08.458Z,5.95
2022-09-27T19:40:11.270Z,5.50
2022-09-27T19:42:14.299Z,5.63
2022-09-27T19:44:16.978Z,8.18
2022-09-27T19:46:21.149Z,5.72
2022-09-27T19:48:23.778Z,5.10
2022-09-27T19:50:26.423Z,6.15
2022-09-27T19:52:29.045Z,6.57
2022-09-27T19:54:31.840Z,6.05
2022-09-27T19:56:35.166Z,4.45
2022-09-27T19:58:39.303Z,6.90
2022-09-27T20:00:41.925Z,4.63
2022-09-27T20:02:44.632Z,4.30
2022-09-27T20:04:47.256Z,8.02
2022-09-27T20:06:49.795Z,4.90
2022-09-27T20:08:52.778Z,9.57
2022-09-27T20:11:05.186Z,4.15
2022-09-27T20:13:08.961Z,8.30
2022-09-27T20:15:11.786Z,4.60
2022-09-27T20:17:14.318Z,6.75
2022-09-27T20:19:16.964Z,8.52
2022-09-27T20:21:21.413Z,5.38
2022-09-27T20:23:25.113Z,3.30
2022-09-27T20:25:29.575Z,5.20
2022-09-27T20:27:32.228Z,4.13
2022-09-27T20:29:34.791Z,5.60
2022-09-27T20:32:02.844Z,5.35
2022-09-27T20:34:08.685Z,5.40
2022-09-27T20:36:19.511Z,4.25
2022-09-27T20:38:22.340Z,6.25
2022-09-27T20:40:25.757Z,3.65
2022-09-27T20:42:28.294Z,3.42
2022-09-27T20:44:32.008Z,8.75
2022-09-27T20:46:36.906Z,7.90
2022-09-27T20:48:40.344Z,5.10
2022-09-27T20:50:42.991Z,4.93
2022-09-27T20:52:45.635Z,7.65
2022-09-27T20:54:48.206Z,4.20
2022-09-27T20:56:50.766Z,3.17
2022-09-27T20:58:55.198Z,5.00
2022-09-27T21:01:04.334Z,9.00
2022-09-27T21:03:06.946Z,4.32
2022-09-27T21:05:09.782Z,6.45
2022-09-27T21:07:12.291Z,3.92
2022-09-27T21:09:24.023Z,5.55
2022-09-27T21:11:26.991Z,3.67
2022-09-27T21:13:29.537Z,5.13
2022-09-27T21:15:32.224Z,3.88
2022-09-27T21:17:34.813Z,5.07
2022-09-27T21:19:37.321Z,4.03
2022-09-27T21:21:39.940Z,3.60
2022-09-27T21:23:45.562Z,4.32
2022-09-27T21:25:50.746Z,4.05
2022-09-27T21:28:00.291Z,3.83
2022-09-27T21:30:03.111Z,5.22
2022-09-27T21:32:06.005Z,5.95
2022-09-27T21:34:08.721Z,6.43
2022-09-27T21:36:12.203Z,9.68
2022-09-27T21:38:14.791Z,6.05
2022-09-27T21:40:17.492Z,4.63
2022-09-27T21:42:20.027Z,4.28
2022-09-27T21:44:22.620Z,6.60
2022-09-27T21:46:27.722Z,5.07
2022-09-27T21:48:31.071Z,4.65
2022-09-27T21:50:35.248Z,4.68
2022-09-27T21:52:37.791Z,5.90
2022-09-27T21:54:40.390Z,4.70
2022-09-27T21:56:44.139Z,8.27
2022-09-27T21:58:46.680Z,4.30
2022-09-27T22:00:49.300Z,8.07
2022-09-27T22:02:57.559Z,3.88
2022-09-27T22:05:00.419Z,3.55
2022-09-27T22:07:03.372Z,3.45
2022-09-27T22:09:13.381Z,9.07
2022-09-27T22:11:31.642Z,4.88
2022-09-27T22:13:34.829Z,8.68
2022-09-27T22:15:38.230Z,3.95
2022-09-27T22:17:40.756Z,5.25
2022-09-27T22:19:43.350Z,4.95
2022-09-27T22:21:46.208Z,4.85
2022-09-27T22:24:03.914Z,4.75
2022-09-27T22:26:14.890Z,5.25
2022-09-27T22:28:17.433Z,4.78
2022-09-27T22:30:20.446Z,4.47
2022-09-27T22:32:23.162Z,6.65
2022-09-27T22:34:31.659Z,5.93
2022-09-27T22:36:35.683Z,6.30
2022-09-27T22:38:38.314Z,4.18
2022-09-27T22:40:41.816Z,4.22
2022-09-27T22:42:44.448Z,4.95
2022-09-27T22:44:47.015Z,4.28
2022-09-27T22:46:49.725Z,3.67
2022-09-27T22:48:52.882Z,5.72
2022-09-27T22:50:57.213Z,3.90
2022-09-27T22:52:59.751Z,3.90
2022-09-27T22:55:02.400Z,5.53
2022-09-27T22:57:05.867Z,4.25
2022-09-27T22:59:08.521Z,4.22
2022-09-27T23:01:16.725Z,6.88
2022-09-27T23:03:19.561Z,5.22
2022-09-27T23:05:22.223Z,4.47
2022-09-27T23:07:24.770Z,6.22
2022-09-27T23:09:27.472Z,3.78
2022-09-27T23:11:30.616Z,9.35
2022-09-27T23:13:41.420Z,7.78
2022-09-27T23:15:44.181Z,4.35
2022-09-27T23:17:50.565Z,4.80
2022-09-27T23:19:53.180Z,6.53
2022-09-27T23:21:55.683Z,5.75
2022-09-27T23:23:59.863Z,4.00
2022-09-27T23:26:05.827Z,3.78
2022-09-27T23:28:08.495Z,4.32
2022-09-27T23:30:13.388Z,3.95
2022-09-27T23:32:16.129Z,6.15
2022-09-27T23:34:19.115Z,4.38
2022-09-27T23:36:25.722Z,6.95
2022-09-27T23:38:31.016Z,6.30
2022-09-27T23:40:36.111Z,5.93
2022-09-27T23:42:39.044Z,3.88
2022-09-27T23:44:43.346Z,5.22
2022-09-27T23:46:46.341Z,4.97
2022-09-27T23:48:49.054Z,6.25
2022-09-27T23:50:52.464Z,4.13
2022-09-27T23:52:55.054Z,6.25
2022-09-27T23:54:57.569Z,5.28
2022-09-27T23:57:00.189Z,4.43
2022-09-27T23:59:02.966Z,6.10
